Norrkoping, Sweden

4:44 PM CEST on July 31, 2014 (GMT +0200)
Kungsangen (ESSP) Elev 30 ft | 58.59 °N, 16.25 °E | Change Station

Current weather conditions updated 24 minutes ago

Clear
Clear
77 °F
Feels Like 77 °F
N
16
Wind Variable Wind from WSW
Gusts 28 mph

Tomorrow is forecast to be nearly the same temperature as today.

Today
High -- | Low -- °F
--% Chance of Precip.
Yesterday
High -- | Low -- °F
Precip. -- in
4:42 AM 9:19 PM
Waxing Crescent, 19% visible
Pressure 29.71 in
Visibility -9999.0 miles
Clouds
Dew Point 52 °F
Humidity 41%
Rainfall 0.00 in
Snow Depth Not available.
UV Not available.
Pollen Not available.
Air Quality Not available.
Flu Activity Not available.
METAR ESSP 311420Z 25014G24KT CAVOK 25/11 Q1006

More Conditions Fewer Conditions

Pressure 29.71 in
Visibility -9999.0 miles
Clouds
Dew Point 52 °F
Humidity 41%
Rainfall 0.00 in
Snow Depth Not available.
UV Not available.
Pollen Not available.
Air Quality Not available.
Flu Activity Not available.
METAR ESSP 311420Z 25014G24KT CAVOK 25/11 Q1006

More Conditions Fewer Conditions

10-Day Weather Forecast

Almanac

Astronomy

Jul. 31, 2014 Rise Set
Actual Time 4:42 AM CEST 9:19 PM CEST
Civil Twilight 3:45 AM CEST 10:14 PM CEST
Nautical Twilight 2:04 AM CEST 11:52 PM CEST
Astronomical Twilight Sun does not rise Sun does not rise
Moon 10:04 AM CEST 10:06 PM CEST
Length of Visible Light 18h 28m
Length of Day
16h 37m
Tomorrow will be 4m 26s shorter.
Waxing Crescent, 19% of the Moon is Illuminated
Today
Waxing Crescent
Aug 3
First Quarter
Aug 10
Full
Aug 17
Last Quarter
Aug 25
New

Today's Extremes

Country Highs Country Lows

Community

WunderPhotos

Upload Photos

1,739,344 photos uploaded!

Nearby

Snow Depth

Not available.

Earthquake Activity

City Distance Mag. Time & Date
No recent earthquake activity has been reported nearby.
Minimum magnitude displayed is 2.5.

Coastal Water Temperatures

Place Temperature
No Stations Reporting

Nearby Weather Stations

Station Location Temp. Heat Index Dew Point Humidity Wind Precip. Elev Updated Type
Marby, Norrkoeping 78.8 °F 79 °F 55 °F 44% ENE  at  4.0 mph - / hr 62 ft 4:30 PM CEST Normal
Kaffebacken, Norrkoeping 78.3 °F 79 °F 53 °F 41% NNE  at  6.0 mph 0.00 in / hr 144 ft 4:42 PM CEST Normal
Aby, Ostergotland, �sterg�tlands L�n 79.3 °F 80 °F 59 °F 50% South  at  4.0 mph 0.00 in / hr 157 ft 4:43 PM CEST Normal
Krokek, Kolmården 78.1 °F 79 °F 52 °F 40% SW  at  2.5 mph 0.00 in / hr 161 ft 4:44 PM CEST Rapid Fire
kolmarden, Östergötlands Län 79.9 °F 80 °F 53 °F 40% WNW  at  5.8 mph 0.00 in / hr 121 ft 4:28 PM CEST Normal
FinspÃ¥ng, FinspÃ¥ng 76.8 °F 78 °F 55 °F 47% SW  at  12.7 mph 0.00 in / hr 157 ft 4:44 PM CEST Rapid Fire
Ekangen, Linkoping 84.0 °F 84 °F 61 °F 46% NW  at  1.6 mph 0.00 in / hr 144 ft 4:44 PM CEST Rapid Fire

Show More Stations Show Fewer Stations